sensor_id;sensor_type;location;lat;lon;timestamp;temperature;humidity
15617;DHT22;7908;51.688;7.130;2022-07-23T00:00:22;15.40;99.90
15617;DHT22;7908;51.688;7.130;2022-07-23T00:02:55;15.40;99.90
15617;DHT22;7908;51.688;7.130;2022-07-23T00:05:24;15.30;99.90
15617;DHT22;7908;51.688;7.130;2022-07-23T00:08:00;15.30;99.90
15617;DHT22;7908;51.688;7.130;2022-07-23T00:10:29;15.30;99.90
15617;DHT22;7908;51.688;7.130;2022-07-23T00:12:59;15.20;99.90
15617;DHT22;7908;51.688;7.130;2022-07-23T00:15:32;15.30;99.90
15617;DHT22;7908;51.688;7.130;2022-07-23T00:18:02;15.30;99.90
15617;DHT22;7908;51.688;7.130;2022-07-23T00:20:35;15.30;99.90
15617;DHT22;7908;51.688;7.130;2022-07-23T00:23:07;15.30;99.90
15617;DHT22;7908;51.688;7.130;2022-07-23T00:25:38;15.30;99.90
15617;DHT22;7908;51.688;7.130;2022-07-23T00:28:11;15.40;99.90
15617;DHT22;7908;51.688;7.130;2022-07-23T00:30:44;15.50;99.90
15617;DHT22;7908;51.688;7.130;2022-07-23T00:33:13;15.50;99.90
15617;DHT22;7908;51.688;7.130;2022-07-23T00:35:46;15.50;99.90
15617;DHT22;7908;51.688;7.130;2022-07-23T00:38:20;15.60;99.90
15617;DHT22;7908;51.688;7.130;2022-07-23T00:40:49;15.60;99.90
15617;DHT22;7908;51.688;7.130;2022-07-23T00:43:22;15.60;99.90
15617;DHT22;7908;51.688;7.130;2022-07-23T00:45:54;15.60;99.90
15617;DHT22;7908;51.688;7.130;2022-07-23T00:48:24;15.50;99.90
15617;DHT22;7908;51.688;7.130;2022-07-23T00:50:56;15.50;99.90
15617;DHT22;7908;51.688;7.130;2022-07-23T00:53:27;15.50;99.90
15617;DHT22;7908;51.688;7.130;2022-07-23T00:55:56;15.50;99.90
15617;DHT22;7908;51.688;7.130;2022-07-23T00:58:26;15.50;99.90
15617;DHT22;7908;51.688;7.130;2022-07-23T01:00:56;15.50;99.90
15617;DHT22;7908;51.688;7.130;2022-07-23T01:03:25;15.50;99.90
15617;DHT22;7908;51.688;7.130;2022-07-23T01:05:55;15.40;99.90
15617;DHT22;7908;51.688;7.130;2022-07-23T01:08:26;15.40;99.90
15617;DHT22;7908;51.688;7.130;2022-07-23T01:10:56;15.30;99.90
15617;DHT22;7908;51.688;7.130;2022-07-23T01:13:28;15.30;99.90
15617;DHT22;7908;51.688;7.130;2022-07-23T01:15:57;15.40;99.90
15617;DHT22;7908;51.688;7.130;2022-07-23T01:18:27;15.40;99.90
15617;DHT22;7908;51.688;7.130;2022-07-23T01:20:56;15.40;99.90
15617;DHT22;7908;51.688;7.130;2022-07-23T01:23:29;15.30;99.90
15617;DHT22;7908;51.688;7.130;2022-07-23T01:25:58;15.30;99.90
15617;DHT22;7908;51.688;7.130;2022-07-23T01:28:27;15.30;99.90
15617;DHT22;7908;51.688;7.130;2022-07-23T01:31:01;15.30;99.90
15617;DHT22;7908;51.688;7.130;2022-07-23T01:33:35;15.20;99.90
15617;DHT22;7908;51.688;7.130;2022-07-23T01:36:08;15.20;99.90
15617;DHT22;7908;51.688;7.130;2022-07-23T01:38:38;15.30;99.90
15617;DHT22;7908;51.688;7.130;2022-07-23T01:41:07;15.30;99.90
15617;DHT22;7908;51.688;7.130;2022-07-23T01:43:36;15.30;99.90
15617;DHT22;7908;51.688;7.130;2022-07-23T01:46:07;15.30;99.90
15617;DHT22;7908;51.688;7.130;2022-07-23T01:48:43;15.30;99.90
15617;DHT22;7908;51.688;7.130;2022-07-23T01:51:12;15.30;99.90
15617;DHT22;7908;51.688;7.130;2022-07-23T01:53:45;15.30;99.90
15617;DHT22;7908;51.688;7.130;2022-07-23T01:56:14;15.30;99.90
15617;DHT22;7908;51.688;7.130;2022-07-23T01:58:46;15.30;99.90
15617;DHT22;7908;51.688;7.130;2022-07-23T02:01:15;15.20;99.90
15617;DHT22;7908;51.688;7.130;2022-07-23T02:03:54;15.20;99.90
15617;DHT22;7908;51.688;7.130;2022-07-23T02:06:26;15.10;99.90
15617;DHT22;7908;51.688;7.130;2022-07-23T02:08:57;15.10;99.90
15617;DHT22;7908;51.688;7.130;2022-07-23T02:11:26;15.20;99.90
15617;DHT22;7908;51.688;7.130;2022-07-23T02:14:06;15.10;99.90
15617;DHT22;7908;51.688;7.130;2022-07-23T02:16:37;15.10;99.90
15617;DHT22;7908;51.688;7.130;2022-07-23T02:19:07;15.00;99.90
15617;DHT22;7908;51.688;7.130;2022-07-23T02:21:35;14.90;99.90
15617;DHT22;7908;51.688;7.130;2022-07-23T02:24:18;14.90;99.90
15617;DHT22;7908;51.688;7.130;2022-07-23T02:26:47;14.80;99.90
15617;DHT22;7908;51.688;7.130;2022-07-23T02:29:24;14.80;99.90
15617;DHT22;7908;51.688;7.130;2022-07-23T02:31:58;14.80;99.90
15617;DHT22;7908;51.688;7.130;2022-07-23T02:34:27;14.80;99.90
15617;DHT22;7908;51.688;7.130;2022-07-23T02:36:58;14.80;99.90
15617;DHT22;7908;51.688;7.130;2022-07-23T02:39:35;14.80;99.90
15617;DHT22;7908;51.688;7.130;2022-07-23T02:42:05;14.80;99.90
15617;DHT22;7908;51.688;7.130;2022-07-23T02:44:36;14.70;99.90
15617;DHT22;7908;51.688;7.130;2022-07-23T02:47:05;14.60;99.90
15617;DHT22;7908;51.688;7.130;2022-07-23T02:49:34;14.50;99.90
15617;DHT22;7908;51.688;7.130;2022-07-23T02:52:04;14.50;99.90
15617;DHT22;7908;51.688;7.130;2022-07-23T02:54:35;14.60;99.90
15617;DHT22;7908;51.688;7.130;2022-07-23T02:57:04;14.50;99.90
15617;DHT22;7908;51.688;7.130;2022-07-23T02:59:37;14.40;99.90
15617;DHT22;7908;51.688;7.130;2022-07-23T03:02:07;14.30;99.90
15617;DHT22;7908;51.688;7.130;2022-07-23T03:04:38;14.40;99.90
15617;DHT22;7908;51.688;7.130;2022-07-23T03:07:10;14.40;99.90
15617;DHT22;7908;51.688;7.130;2022-07-23T03:09:47;14.40;99.90
15617;DHT22;7908;51.688;7.130;2022-07-23T03:12:18;14.30;99.90
15617;DHT22;7908;51.688;7.130;2022-07-23T03:14:47;14.30;99.90
15617;DHT22;7908;51.688;7.130;2022-07-23T03:17:17;14.30;99.90
15617;DHT22;7908;51.688;7.130;2022-07-23T03:19:47;14.20;99.90
15617;DHT22;7908;51.688;7.130;2022-07-23T03:22:16;14.20;99.90
15617;DHT22;7908;51.688;7.130;2022-07-23T03:24:44;14.20;99.90
15617;DHT22;7908;51.688;7.130;2022-07-23T03:27:28;14.20;99.90
15617;DHT22;7908;51.688;7.130;2022-07-23T03:30:00;14.20;99.90
15617;DHT22;7908;51.688;7.130;2022-07-23T03:32:30;14.10;99.90
15617;DHT22;7908;51.688;7.130;2022-07-23T03:35:06;14.10;99.90
15617;DHT22;7908;51.688;7.130;2022-07-23T03:37:37;14.10;99.90
15617;DHT22;7908;51.688;7.130;2022-07-23T03:40:09;14.10;99.90
15617;DHT22;7908;51.688;7.130;2022-07-23T03:42:42;14.00;99.90
15617;DHT22;7908;51.688;7.130;2022-07-23T03:45:15;14.00;99.90
15617;DHT22;7908;51.688;7.130;2022-07-23T03:47:45;13.90;99.90
15617;DHT22;7908;51.688;7.130;2022-07-23T03:50:14;13.90;99.90
15617;DHT22;7908;51.688;7.130;2022-07-23T03:52:45;13.80;99.90
15617;DHT22;7908;51.688;7.130;2022-07-23T03:55:16;13.80;99.90
15617;DHT22;7908;51.688;7.130;2022-07-23T03:57:49;13.80;99.90
15617;DHT22;7908;51.688;7.130;2022-07-23T04:00:18;13.80;99.90
15617;DHT22;7908;51.688;7.130;2022-07-23T04:02:48;13.80;99.90
15617;DHT22;7908;51.688;7.130;2022-07-23T04:05:19;13.70;99.90
15617;DHT22;7908;51.688;7.130;2022-07-23T04:07:48;13.70;99.90
15617;DHT22;7908;51.688;7.130;2022-07-23T04:10:17;13.70;99.90
15617;DHT22;7908;51.688;7.130;2022-07-23T04:12:46;13.70;99.90
15617;DHT22;7908;51.688;7.130;2022-07-23T04:15:19;13.70;99.90
15617;DHT22;7908;51.688;7.130;2022-07-23T04:17:51;13.80;99.90
15617;DHT22;7908;51.688;7.130;2022-07-23T04:20:20;13.80;99.90
15617;DHT22;7908;51.688;7.130;2022-07-23T04:22:48;13.80;99.90
15617;DHT22;7908;51.688;7.130;2022-07-23T04:25:18;13.80;99.90
15617;DHT22;7908;51.688;7.130;2022-07-23T04:28:03;13.80;99.90
15617;DHT22;7908;51.688;7.130;2022-07-23T04:30:34;13.80;99.90
15617;DHT22;7908;51.688;7.130;2022-07-23T04:33:03;13.70;99.90
15617;DHT22;7908;51.688;7.130;2022-07-23T04:35:49;13.70;99.90
15617;DHT22;7908;51.688;7.130;2022-07-23T04:38:19;13.60;99.90
15617;DHT22;7908;51.688;7.130;2022-07-23T04:40:50;13.60;99.90
15617;DHT22;7908;51.688;7.130;2022-07-23T04:43:21;13.70;99.90
15617;DHT22;7908;51.688;7.130;2022-07-23T04:46:10;13.70;99.90
15617;DHT22;7908;51.688;7.130;2022-07-23T04:48:39;13.80;99.90
15617;DHT22;7908;51.688;7.130;2022-07-23T04:51:09;13.80;99.90
15617;DHT22;7908;51.688;7.130;2022-07-23T04:53:38;13.90;99.90
15617;DHT22;7908;51.688;7.130;2022-07-23T04:56:08;13.90;99.90
15617;DHT22;7908;51.688;7.130;2022-07-23T04:58:40;14.10;99.90
15617;DHT22;7908;51.688;7.130;2022-07-23T05:01:15;14.30;99.90
15617;DHT22;7908;51.688;7.130;2022-07-23T05:03:48;14.40;99.90
15617;DHT22;7908;51.688;7.130;2022-07-23T05:06:17;14.50;99.90
15617;DHT22;7908;51.688;7.130;2022-07-23T05:08:46;14.60;99.90
15617;DHT22;7908;51.688;7.130;2022-07-23T05:11:17;14.70;99.90
15617;DHT22;7908;51.688;7.130;2022-07-23T05:13:53;14.80;99.90
15617;DHT22;7908;51.688;7.130;2022-07-23T05:16:23;15.00;99.90
15617;DHT22;7908;51.688;7.130;2022-07-23T05:18:52;15.10;99.90
15617;DHT22;7908;51.688;7.130;2022-07-23T05:21:24;15.10;99.90
15617;DHT22;7908;51.688;7.130;2022-07-23T05:23:53;15.10;99.90
15617;DHT22;7908;51.688;7.130;2022-07-23T05:26:22;15.20;99.90
15617;DHT22;7908;51.688;7.130;2022-07-23T05:29:05;15.20;99.90
15617;DHT22;7908;51.688;7.130;2022-07-23T05:31:36;15.20;99.90
15617;DHT22;7908;51.688;7.130;2022-07-23T05:34:05;15.20;99.90
15617;DHT22;7908;51.688;7.130;2022-07-23T05:36:52;15.30;99.90
15617;DHT22;7908;51.688;7.130;2022-07-23T05:39:24;15.40;99.90
15617;DHT22;7908;51.688;7.130;2022-07-23T05:41:53;15.50;99.90
15617;DHT22;7908;51.688;7.130;2022-07-23T05:44:22;15.70;99.90
15617;DHT22;7908;51.688;7.130;2022-07-23T05:46:52;15.80;99.90
15617;DHT22;7908;51.688;7.130;2022-07-23T05:49:24;15.90;99.90
15617;DHT22;7908;51.688;7.130;2022-07-23T05:51:57;15.80;99.90
15617;DHT22;7908;51.688;7.130;2022-07-23T05:54:27;15.80;99.90
15617;DHT22;7908;51.688;7.130;2022-07-23T05:57:01;15.80;99.90
15617;DHT22;7908;51.688;7.130;2022-07-23T05:59:32;15.80;99.90
15617;DHT22;7908;51.688;7.130;2022-07-23T06:02:02;15.80;99.90
15617;DHT22;7908;51.688;7.130;2022-07-23T06:04:32;15.90;99.90
15617;DHT22;7908;51.688;7.130;2022-07-23T06:07:00;16.10;99.90
15617;DHT22;7908;51.688;7.130;2022-07-23T06:09:38;16.30;99.90
15617;DHT22;7908;51.688;7.130;2022-07-23T06:12:08;16.40;99.90
15617;DHT22;7908;51.688;7.130;2022-07-23T06:14:39;16.40;99.90
15617;DHT22;7908;51.688;7.130;2022-07-23T06:17:09;16.60;99.90
15617;DHT22;7908;51.688;7.130;2022-07-23T06:19:52;16.70;99.90
15617;DHT22;7908;51.688;7.130;2022-07-23T06:22:22;16.80;99.90
15617;DHT22;7908;51.688;7.130;2022-07-23T06:25:00;16.90;99.90
15617;DHT22;7908;51.688;7.130;2022-07-23T06:27:48;16.90;99.90
15617;DHT22;7908;51.688;7.130;2022-07-23T06:30:21;17.00;99.90
15617;DHT22;7908;51.688;7.130;2022-07-23T06:32:53;16.90;99.90
15617;DHT22;7908;51.688;7.130;2022-07-23T06:35:23;16.90;99.90
15617;DHT22;7908;51.688;7.130;2022-07-23T06:37:52;16.90;99.90
15617;DHT22;7908;51.688;7.130;2022-07-23T06:40:21;16.90;99.90
15617;DHT22;7908;51.688;7.130;2022-07-23T06:42:53;16.80;99.90
15617;DHT22;7908;51.688;7.130;2022-07-23T06:45:22;16.80;99.90
15617;DHT22;7908;51.688;7.130;2022-07-23T06:47:53;16.90;99.90
15617;DHT22;7908;51.688;7.130;2022-07-23T06:50:26;16.90;99.90
15617;DHT22;7908;51.688;7.130;2022-07-23T06:52:57;17.00;99.90
15617;DHT22;7908;51.688;7.130;2022-07-23T06:55:34;17.00;99.90
15617;DHT22;7908;51.688;7.130;2022-07-23T06:58:08;17.30;99.90
15617;DHT22;7908;51.688;7.130;2022-07-23T07:00:40;17.50;99.90
15617;DHT22;7908;51.688;7.130;2022-07-23T07:03:13;17.40;99.90
15617;DHT22;7908;51.688;7.130;2022-07-23T07:05:45;17.60;99.90
15617;DHT22;7908;51.688;7.130;2022-07-23T07:08:20;17.60;99.90
15617;DHT22;7908;51.688;7.130;2022-07-23T07:10:50;17.60;99.90
15617;DHT22;7908;51.688;7.130;2022-07-23T07:13:23;17.60;99.90
15617;DHT22;7908;51.688;7.130;2022-07-23T07:15:52;17.60;99.90
15617;DHT22;7908;51.688;7.130;2022-07-23T07:18:25;17.80;99.90
15617;DHT22;7908;51.688;7.130;2022-07-23T07:20:56;17.80;99.90
15617;DHT22;7908;51.688;7.130;2022-07-23T07:23:25;17.80;99.90
15617;DHT22;7908;51.688;7.130;2022-07-23T07:26:00;17.90;99.90
15617;DHT22;7908;51.688;7.130;2022-07-23T07:28:32;17.90;99.90
15617;DHT22;7908;51.688;7.130;2022-07-23T07:31:04;17.90;99.90
15617;DHT22;7908;51.688;7.130;2022-07-23T07:33:40;17.90;99.90
15617;DHT22;7908;51.688;7.130;2022-07-23T07:36:18;17.90;99.90
15617;DHT22;7908;51.688;7.130;2022-07-23T07:38:47;17.80;99.90
15617;DHT22;7908;51.688;7.130;2022-07-23T07:41:17;18.00;99.90
15617;DHT22;7908;51.688;7.130;2022-07-23T07:43:54;18.20;99.90
15617;DHT22;7908;51.688;7.130;2022-07-23T07:46:28;18.30;99.90
15617;DHT22;7908;51.688;7.130;2022-07-23T07:49:01;18.40;99.90
15617;DHT22;7908;51.688;7.130;2022-07-23T07:51:32;18.10;99.90
15617;DHT22;7908;51.688;7.130;2022-07-23T07:54:06;18.10;99.90
15617;DHT22;7908;51.688;7.130;2022-07-23T07:56:35;18.20;99.90
15617;DHT22;7908;51.688;7.130;2022-07-23T07:59:07;18.20;99.90
15617;DHT22;7908;51.688;7.130;2022-07-23T08:01:43;18.30;99.90
15617;DHT22;7908;51.688;7.130;2022-07-23T08:04:21;18.10;99.90
15617;DHT22;7908;51.688;7.130;2022-07-23T08:07:08;18.20;99.90
15617;DHT22;7908;51.688;7.130;2022-07-23T08:09:37;18.30;99.90
15617;DHT22;7908;51.688;7.130;2022-07-23T08:12:09;18.50;99.90
15617;DHT22;7908;51.688;7.130;2022-07-23T08:14:45;18.40;99.90
15617;DHT22;7908;51.688;7.130;2022-07-23T08:17:15;18.20;99.90
15617;DHT22;7908;51.688;7.130;2022-07-23T08:19:51;18.20;99.90
15617;DHT22;7908;51.688;7.130;2022-07-23T08:22:42;18.40;99.90
15617;DHT22;7908;51.688;7.130;2022-07-23T08:25:13;18.60;99.90
15617;DHT22;7908;51.688;7.130;2022-07-23T08:27:42;18.80;99.90
15617;DHT22;7908;51.688;7.130;2022-07-23T08:30:14;18.70;99.90
15617;DHT22;7908;51.688;7.130;2022-07-23T08:33:00;18.70;99.90
15617;DHT22;7908;51.688;7.130;2022-07-23T08:35:40;18.70;99.90
15617;DHT22;7908;51.688;7.130;2022-07-23T08:38:16;18.90;99.90
15617;DHT22;7908;51.688;7.130;2022-07-23T08:41:08;18.90;99.90
15617;DHT22;7908;51.688;7.130;2022-07-23T08:43:41;19.00;99.90
15617;DHT22;7908;51.688;7.130;2022-07-23T08:46:19;19.20;99.90
15617;DHT22;7908;51.688;7.130;2022-07-23T08:48:51;19.50;99.90
15617;DHT22;7908;51.688;7.130;2022-07-23T08:51:31;19.70;99.90
15617;DHT22;7908;51.688;7.130;2022-07-23T08:54:12;19.70;99.90
15617;DHT22;7908;51.688;7.130;2022-07-23T08:56:41;19.70;99.90
15617;DHT22;7908;51.688;7.130;2022-07-23T08:59:10;19.80;99.90
15617;DHT22;7908;51.688;7.130;2022-07-23T09:01:47;19.80;99.90
15617;DHT22;7908;51.688;7.130;2022-07-23T09:04:21;19.70;99.90
15617;DHT22;7908;51.688;7.130;2022-07-23T09:06:59;19.70;99.90
15617;DHT22;7908;51.688;7.130;2022-07-23T09:09:32;19.80;99.90
15617;DHT22;7908;51.688;7.130;2022-07-23T09:12:06;19.90;99.90
15617;DHT22;7908;51.688;7.130;2022-07-23T09:14:39;20.00;99.90
15617;DHT22;7908;51.688;7.130;2022-07-23T09:17:45;20.10;99.90
15617;DHT22;7908;51.688;7.130;2022-07-23T09:20:17;20.20;99.90
15617;DHT22;7908;51.688;7.130;2022-07-23T09:22:55;20.20;99.90
15617;DHT22;7908;51.688;7.130;2022-07-23T09:25:44;20.40;99.90
15617;DHT22;7908;51.688;7.130;2022-07-23T09:28:26;20.50;99.90
15617;DHT22;7908;51.688;7.130;2022-07-23T09:31:02;20.60;99.90
15617;DHT22;7908;51.688;7.130;2022-07-23T09:37:10;20.60;99.90
15617;DHT22;7908;51.688;7.130;2022-07-23T09:40:19;20.70;99.90
15617;DHT22;7908;51.688;7.130;2022-07-23T09:42:56;20.60;99.90
15617;DHT22;7908;51.688;7.130;2022-07-23T09:45:31;20.60;99.90
15617;DHT22;7908;51.688;7.130;2022-07-23T09:48:26;20.60;99.90
15617;DHT22;7908;51.688;7.130;2022-07-23T09:51:06;20.80;99.90
15617;DHT22;7908;51.688;7.130;2022-07-23T09:53:38;20.90;99.90
15617;DHT22;7908;51.688;7.130;2022-07-23T09:56:14;20.80;99.90
15617;DHT22;7908;51.688;7.130;2022-07-23T09:58:57;20.70;99.90
15617;DHT22;7908;51.688;7.130;2022-07-23T10:01:34;20.70;99.90
15617;DHT22;7908;51.688;7.130;2022-07-23T10:04:14;20.80;99.90
15617;DHT22;7908;51.688;7.130;2022-07-23T10:06:51;20.90;99.90
15617;DHT22;7908;51.688;7.130;2022-07-23T10:09:34;20.90;99.90
15617;DHT22;7908;51.688;7.130;2022-07-23T10:12:12;20.90;99.90
15617;DHT22;7908;51.688;7.130;2022-07-23T10:15:02;21.10;99.90
15617;DHT22;7908;51.688;7.130;2022-07-23T10:17:38;21.10;99.90
15617;DHT22;7908;51.688;7.130;2022-07-23T10:20:10;21.20;99.90
15617;DHT22;7908;51.688;7.130;2022-07-23T10:22:44;21.30;99.90
15617;DHT22;7908;51.688;7.130;2022-07-23T10:25:24;21.40;99.90
15617;DHT22;7908;51.688;7.130;2022-07-23T10:28:06;21.50;99.90
15617;DHT22;7908;51.688;7.130;2022-07-23T10:30:48;21.50;99.90
15617;DHT22;7908;51.688;7.130;2022-07-23T10:33:32;21.60;99.90
15617;DHT22;7908;51.688;7.130;2022-07-23T10:36:22;21.60;99.90
15617;DHT22;7908;51.688;7.130;2022-07-23T10:39:03;21.60;99.90
15617;DHT22;7908;51.688;7.130;2022-07-23T10:41:45;21.60;99.90
15617;DHT22;7908;51.688;7.130;2022-07-23T10:44:38;21.70;99.90
15617;DHT22;7908;51.688;7.130;2022-07-23T10:47:27;21.80;99.90
15617;DHT22;7908;51.688;7.130;2022-07-23T10:50:27;21.90;99.90
15617;DHT22;7908;51.688;7.130;2022-07-23T10:53:17;21.90;99.90
15617;DHT22;7908;51.688;7.130;2022-07-23T10:55:51;21.90;99.90
15617;DHT22;7908;51.688;7.130;2022-07-23T10:58:49;21.80;99.90
15617;DHT22;7908;51.688;7.130;2022-07-23T11:01:41;21.80;99.90
15617;DHT22;7908;51.688;7.130;2022-07-23T11:04:11;21.80;99.90
15617;DHT22;7908;51.688;7.130;2022-07-23T11:07:10;21.90;99.90
15617;DHT22;7908;51.688;7.130;2022-07-23T11:09:50;22.00;99.90
15617;DHT22;7908;51.688;7.130;2022-07-23T11:12:34;22.10;99.90
15617;DHT22;7908;51.688;7.130;2022-07-23T11:15:09;22.20;99.90
15617;DHT22;7908;51.688;7.130;2022-07-23T11:18:00;22.30;99.90
15617;DHT22;7908;51.688;7.130;2022-07-23T11:20:46;22.30;99.90
15617;DHT22;7908;51.688;7.130;2022-07-23T11:23:17;22.30;99.90
15617;DHT22;7908;51.688;7.130;2022-07-23T11:25:47;22.30;99.90
15617;DHT22;7908;51.688;7.130;2022-07-23T11:28:19;22.30;99.90
15617;DHT22;7908;51.688;7.130;2022-07-23T11:30:53;22.20;99.90
15617;DHT22;7908;51.688;7.130;2022-07-23T11:33:23;22.20;99.90
15617;DHT22;7908;51.688;7.130;2022-07-23T11:36:03;22.30;99.90
15617;DHT22;7908;51.688;7.130;2022-07-23T11:38:35;22.40;99.90
15617;DHT22;7908;51.688;7.130;2022-07-23T11:41:12;22.40;99.90
15617;DHT22;7908;51.688;7.130;2022-07-23T11:43:45;22.40;99.90
15617;DHT22;7908;51.688;7.130;2022-07-23T11:46:20;22.50;99.90
15617;DHT22;7908;51.688;7.130;2022-07-23T11:49:01;22.50;99.90
15617;DHT22;7908;51.688;7.130;2022-07-23T11:51:36;22.50;99.90
15617;DHT22;7908;51.688;7.130;2022-07-23T11:54:15;22.50;99.90
15617;DHT22;7908;51.688;7.130;2022-07-23T11:57:02;22.60;99.90
15617;DHT22;7908;51.688;7.130;2022-07-23T11:59:33;22.70;99.90
15617;DHT22;7908;51.688;7.130;2022-07-23T12:02:06;22.70;99.90
15617;DHT22;7908;51.688;7.130;2022-07-23T12:04:42;22.70;99.90
15617;DHT22;7908;51.688;7.130;2022-07-23T12:07:35;22.70;99.90
15617;DHT22;7908;51.688;7.130;2022-07-23T12:10:13;22.80;99.90
15617;DHT22;7908;51.688;7.130;2022-07-23T12:12:53;22.90;99.90
15617;DHT22;7908;51.688;7.130;2022-07-23T12:15:28;22.90;99.90
15617;DHT22;7908;51.688;7.130;2022-07-23T12:18:04;22.90;99.90
15617;DHT22;7908;51.688;7.130;2022-07-23T12:20:44;23.10;99.90
15617;DHT22;7908;51.688;7.130;2022-07-23T12:23:22;23.10;99.90
15617;DHT22;7908;51.688;7.130;2022-07-23T12:25:53;23.20;99.90
15617;DHT22;7908;51.688;7.130;2022-07-23T12:28:29;23.20;99.90
15617;DHT22;7908;51.688;7.130;2022-07-23T12:31:08;23.20;99.90
15617;DHT22;7908;51.688;7.130;2022-07-23T12:33:46;23.10;99.90
15617;DHT22;7908;51.688;7.130;2022-07-23T12:36:20;23.20;99.90
15617;DHT22;7908;51.688;7.130;2022-07-23T12:39:08;23.30;99.90
15617;DHT22;7908;51.688;7.130;2022-07-23T12:41:52;23.30;99.90
15617;DHT22;7908;51.688;7.130;2022-07-23T12:44:25;23.20;99.90
15617;DHT22;7908;51.688;7.130;2022-07-23T12:46:54;23.20;99.90
15617;DHT22;7908;51.688;7.130;2022-07-23T12:49:27;23.20;99.90
15617;DHT22;7908;51.688;7.130;2022-07-23T12:52:15;23.10;99.90
15617;DHT22;7908;51.688;7.130;2022-07-23T12:54:48;23.10;99.90
15617;DHT22;7908;51.688;7.130;2022-07-23T12:57:22;23.00;99.90
15617;DHT22;7908;51.688;7.130;2022-07-23T13:00:23;23.00;99.90
15617;DHT22;7908;51.688;7.130;2022-07-23T13:02:53;23.20;99.90
15617;DHT22;7908;51.688;7.130;2022-07-23T13:05:25;23.20;99.90
15617;DHT22;7908;51.688;7.130;2022-07-23T13:07:57;23.30;99.90
15617;DHT22;7908;51.688;7.130;2022-07-23T13:10:39;23.40;99.90
15617;DHT22;7908;51.688;7.130;2022-07-23T13:13:14;23.40;99.90
15617;DHT22;7908;51.688;7.130;2022-07-23T13:15:49;23.40;99.90
15617;DHT22;7908;51.688;7.130;2022-07-23T13:18:26;23.40;99.90
15617;DHT22;7908;51.688;7.130;2022-07-23T13:20:55;23.30;99.90
15617;DHT22;7908;51.688;7.130;2022-07-23T13:23:31;23.30;99.90
15617;DHT22;7908;51.688;7.130;2022-07-23T13:26:03;23.30;99.90
15617;DHT22;7908;51.688;7.130;2022-07-23T13:28:35;23.40;99.90
15617;DHT22;7908;51.688;7.130;2022-07-23T13:31:21;23.30;99.90
15617;DHT22;7908;51.688;7.130;2022-07-23T13:34:10;23.40;99.90
15617;DHT22;7908;51.688;7.130;2022-07-23T13:36:41;23.30;99.90
15617;DHT22;7908;51.688;7.130;2022-07-23T13:39:18;23.30;99.90
15617;DHT22;7908;51.688;7.130;2022-07-23T13:41:46;23.40;99.90
15617;DHT22;7908;51.688;7.130;2022-07-23T13:44:17;23.50;99.90
15617;DHT22;7908;51.688;7.130;2022-07-23T13:46:49;23.50;99.90
15617;DHT22;7908;51.688;7.130;2022-07-23T13:49:19;23.60;99.90
15617;DHT22;7908;51.688;7.130;2022-07-23T13:51:57;23.60;99.90
15617;DHT22;7908;51.688;7.130;2022-07-23T13:54:36;23.70;99.90
15617;DHT22;7908;51.688;7.130;2022-07-23T13:57:05;23.70;99.90
15617;DHT22;7908;51.688;7.130;2022-07-23T13:59:38;23.70;99.90
15617;DHT22;7908;51.688;7.130;2022-07-23T14:02:15;23.70;99.90
15617;DHT22;7908;51.688;7.130;2022-07-23T14:04:48;23.80;99.90
15617;DHT22;7908;51.688;7.130;2022-07-23T14:07:33;23.80;99.90
15617;DHT22;7908;51.688;7.130;2022-07-23T14:10:14;23.90;99.90
15617;DHT22;7908;51.688;7.130;2022-07-23T14:12:44;23.90;99.90
15617;DHT22;7908;51.688;7.130;2022-07-23T14:15:15;24.00;99.90
15617;DHT22;7908;51.688;7.130;2022-07-23T14:17:47;24.10;99.90
15617;DHT22;7908;51.688;7.130;2022-07-23T14:20:20;24.10;99.90
15617;DHT22;7908;51.688;7.130;2022-07-23T14:22:54;24.10;99.90
15617;DHT22;7908;51.688;7.130;2022-07-23T14:25:54;24.00;99.90
15617;DHT22;7908;51.688;7.130;2022-07-23T14:28:26;24.00;99.90
15617;DHT22;7908;51.688;7.130;2022-07-23T14:30:57;23.90;99.90
15617;DHT22;7908;51.688;7.130;2022-07-23T14:33:28;23.80;99.90
15617;DHT22;7908;51.688;7.130;2022-07-23T14:35:57;23.80;99.90
15617;DHT22;7908;51.688;7.130;2022-07-23T14:38:30;23.80;99.90
15617;DHT22;7908;51.688;7.130;2022-07-23T14:41:07;23.80;99.90
15617;DHT22;7908;51.688;7.130;2022-07-23T14:43:42;23.80;99.90
15617;DHT22;7908;51.688;7.130;2022-07-23T14:46:12;23.90;99.90
15617;DHT22;7908;51.688;7.130;2022-07-23T14:48:46;23.90;99.90
15617;DHT22;7908;51.688;7.130;2022-07-23T14:51:23;24.00;99.90
15617;DHT22;7908;51.688;7.130;2022-07-23T14:54:04;24.10;99.90
15617;DHT22;7908;51.688;7.130;2022-07-23T14:56:39;24.10;99.90
15617;DHT22;7908;51.688;7.130;2022-07-23T14:59:14;24.10;99.90
15617;DHT22;7908;51.688;7.130;2022-07-23T15:01:43;24.20;99.90
15617;DHT22;7908;51.688;7.130;2022-07-23T15:04:16;24.20;99.90
15617;DHT22;7908;51.688;7.130;2022-07-23T15:07:03;24.30;99.90
15617;DHT22;7908;51.688;7.130;2022-07-23T15:09:39;24.30;99.90
15617;DHT22;7908;51.688;7.130;2022-07-23T15:12:13;24.30;99.90
15617;DHT22;7908;51.688;7.130;2022-07-23T15:14:47;24.40;99.90
15617;DHT22;7908;51.688;7.130;2022-07-23T15:17:16;24.50;99.90
15617;DHT22;7908;51.688;7.130;2022-07-23T15:19:48;24.60;99.90
15617;DHT22;7908;51.688;7.130;2022-07-23T15:22:20;24.60;99.90
15617;DHT22;7908;51.688;7.130;2022-07-23T15:25:11;24.70;99.90
15617;DHT22;7908;51.688;7.130;2022-07-23T15:27:45;24.70;99.90
15617;DHT22;7908;51.688;7.130;2022-07-23T15:30:17;24.80;99.90
15617;DHT22;7908;51.688;7.130;2022-07-23T15:32:45;24.80;99.90
15617;DHT22;7908;51.688;7.130;2022-07-23T15:35:22;24.80;99.90
15617;DHT22;7908;51.688;7.130;2022-07-23T15:37:52;24.80;99.90
15617;DHT22;7908;51.688;7.130;2022-07-23T15:40:26;24.90;99.90
15617;DHT22;7908;51.688;7.130;2022-07-23T15:43:05;24.90;99.90
15617;DHT22;7908;51.688;7.130;2022-07-23T15:45:39;24.90;99.90
15617;DHT22;7908;51.688;7.130;2022-07-23T15:48:12;24.90;99.90
15617;DHT22;7908;51.688;7.130;2022-07-23T15:50:43;24.80;99.90
15617;DHT22;7908;51.688;7.130;2022-07-23T15:53:21;24.80;99.90
15617;DHT22;7908;51.688;7.130;2022-07-23T15:56:05;24.70;99.90
15617;DHT22;7908;51.688;7.130;2022-07-23T15:58:47;24.70;99.90
15617;DHT22;7908;51.688;7.130;2022-07-23T16:01:19;24.60;99.90
15617;DHT22;7908;51.688;7.130;2022-07-23T16:03:50;24.60;99.90
15617;DHT22;7908;51.688;7.130;2022-07-23T16:06:19;24.60;99.90
15617;DHT22;7908;51.688;7.130;2022-07-23T16:08:54;24.50;99.90
15617;DHT22;7908;51.688;7.130;2022-07-23T16:11:32;24.50;99.90
15617;DHT22;7908;51.688;7.130;2022-07-23T16:14:07;24.60;99.90
15617;DHT22;7908;51.688;7.130;2022-07-23T16:16:36;24.70;99.90
15617;DHT22;7908;51.688;7.130;2022-07-23T16:19:06;24.70;99.90
15617;DHT22;7908;51.688;7.130;2022-07-23T16:21:47;24.80;99.90
15617;DHT22;7908;51.688;7.130;2022-07-23T16:24:19;25.00;99.90
15617;DHT22;7908;51.688;7.130;2022-07-23T16:26:50;25.10;99.90
15617;DHT22;7908;51.688;7.130;2022-07-23T16:29:25;25.20;99.90
15617;DHT22;7908;51.688;7.130;2022-07-23T16:32:06;25.10;99.90
15617;DHT22;7908;51.688;7.130;2022-07-23T16:34:38;25.00;99.90